メインページ
METAR-TAF:

METAR-TAF

空港 :

コペンハーゲン空港

コペンハーゲン, デンマーク

緯度: 55-37N, 経度: 012-39E, 海抜: 5m

現時点の気象観測

当レポートは27分前の05:50(UTC)に作成
南/南西の風 9kt
気温 3°C
湿度 93%
気圧 1014 hPa
視程10km以上

METAR: EKCH 200550Z AUTO 20009KT 9999 FEW034/// 03/02 Q1014 NOSIG

時間: 07:17 (06:17 UTC)

予報

当レポートは1時間13分前の05:04(UTC)に作成
予報は20日の 06時(UTC)から 21日の 06時(UTC)まで有効
南西の風 10kt
視程10km以上
高度2500ftの千切れ雲あり
20日の 06時(UTC)から 20日の 10時(UTC)まで一時的に
高度900ftの千切れ雲あり
20日の 07時(UTC)から 20日の 10時(UTC)まで徐々に
の風 20kt、最大30ktの突風を伴う
20日の 10時(UTC)から 20日の 12時(UTC)まで徐々に
視程: 3000m
高度600ftの曇り
雨, 霧雨
20日の 12時(UTC)から 20日の 24時(UTC)まで一時的に
視程: 6000m
高度1500ftの千切れ雲あり
小雨, 霧雨
21日の 00時(UTC)から 21日の 02時(UTC)まで徐々に
西の風 15kt
視程10km以上
高度2000ftの雲は散在している

TAF: EKCH 200504Z 2006/2106 22010KT 9999 BKN025 TEMPO 2006/2010 BKN009 BECMG 2007/2010 19020G30KT BECMG 2010/2012 3000 RADZ OVC006 TEMPO 2012/2024 6000 -RADZ BKN015 BECMG 2100/2102 28015KT 9999 NSW SCT020

4,000以上の空港の気象観測と天気予報(METAR報とTAF報)

利用可能な観測所は地図上に黄色い丸と赤い丸で示す。

丸の上にカーソルを重ねると観測所名を参照できる。

次にクリックすると気象観測と天気予報を参照できる。

マップの切り替え:黒色「×」印の緑ボタンをクリックして拡大、「-」印の緑ボタンをクリックして縮小、緑色の三角印をクリックして隣りの地図に切り替え


METAR-TAF: